createdAt,value
2019-06-08T00:00:09.540Z,99540.34
2019-06-08T00:02:40.495Z,99537.42
2019-06-08T00:05:12.594Z,99545.08
2019-06-08T00:07:43.497Z,99559.83
2019-06-08T00:10:14.788Z,99566.94
2019-06-08T00:12:45.570Z,99573.98
2019-06-08T00:15:16.644Z,99583.00
2019-06-08T00:17:47.436Z,99579.95
2019-06-08T00:20:19.756Z,99574.13
2019-06-08T00:22:50.657Z,99584.63
2019-06-08T00:25:22.551Z,99601.33
2019-06-08T00:27:53.380Z,99597.50
2019-06-08T00:30:24.229Z,99620.94
2019-06-08T00:32:55.848Z,99620.63
2019-06-08T00:35:26.538Z,99632.05
2019-06-08T00:37:57.168Z,99627.13
2019-06-08T00:40:27.783Z,99649.22
2019-06-08T00:42:58.296Z,99650.98
2019-06-08T00:45:28.893Z,99642.20
2019-06-08T00:47:59.469Z,99641.58
2019-06-08T00:50:30.051Z,99646.02
2019-06-08T00:53:00.642Z,99644.36
2019-06-08T00:55:31.236Z,99643.56
2019-06-08T00:58:01.816Z,99650.11
2019-06-08T01:00:32.797Z,99646.81
2019-06-08T01:03:03.791Z,99645.19
2019-06-08T01:05:34.676Z,99649.94
2019-06-08T01:08:05.854Z,99646.20
2019-06-08T01:10:36.760Z,99643.66
2019-06-08T01:13:07.849Z,99649.80
2019-06-08T01:15:38.639Z,99656.97
2019-06-08T01:18:09.606Z,99657.06
2019-06-08T01:20:40.391Z,99665.66
2019-06-08T01:23:11.386Z,99666.56
2019-06-08T01:25:42.299Z,99670.65
2019-06-08T01:28:13.230Z,99681.22
2019-06-08T01:30:44.311Z,99674.30
2019-06-08T01:33:15.094Z,99680.17
2019-06-08T01:35:46.021Z,99672.89
2019-06-08T01:38:16.822Z,99677.03
2019-06-08T01:40:47.764Z,99687.99
2019-06-08T01:43:18.654Z,99685.25
2019-06-08T01:45:49.541Z,99687.50
2019-06-08T01:48:21.954Z,99688.66
2019-06-08T01:50:53.076Z,99682.62
2019-06-08T01:53:24.664Z,99692.16
2019-06-08T01:55:55.638Z,99689.59
2019-06-08T01:58:27.435Z,99679.23
2019-06-08T02:00:58.298Z,99695.56
2019-06-08T02:03:30.278Z,99698.08
2019-06-08T02:06:00.915Z,99697.74
2019-06-08T02:08:32.642Z,99709.44
2019-06-08T02:11:03.276Z,99704.68
2019-06-08T02:13:35.244Z,99702.05
2019-06-08T02:16:05.977Z,99708.44
2019-06-08T02:18:48.979Z,99706.00
2019-06-08T02:21:08.840Z,99716.09
2019-06-08T02:23:39.778Z,99721.97
2019-06-08T02:26:11.349Z,99725.05
2019-06-08T02:28:42.255Z,99737.41
2019-06-08T02:31:13.044Z,99736.58
2019-06-08T02:33:43.930Z,99739.61
2019-06-08T02:36:14.614Z,99734.43
2019-06-08T02:38:45.432Z,99739.95
2019-06-08T02:41:16.414Z,99741.06
2019-06-08T02:43:47.309Z,99745.62
2019-06-08T02:46:18.158Z,99756.36
2019-06-08T02:49:03.578Z,99756.00
2019-06-08T02:51:22.806Z,99758.06
2019-06-08T02:53:53.753Z,99761.86
2019-06-08T02:56:25.686Z,99758.00
2019-06-08T02:58:58.740Z,99767.17
2019-06-08T03:01:33.671Z,99766.22
2019-06-08T03:04:04.713Z,99765.17
2019-06-08T03:06:39.464Z,99771.67
2019-06-08T03:09:10.528Z,99766.55
2019-06-08T03:11:42.281Z,99772.64
2019-06-08T03:14:13.874Z,99767.73
2019-06-08T03:16:44.683Z,99766.82
2019-06-08T03:19:21.670Z,99777.97
2019-06-08T03:21:48.132Z,99781.20
2019-06-08T03:24:18.728Z,99781.09
2019-06-08T03:26:49.606Z,99786.08
2019-06-08T03:29:20.196Z,99792.06
2019-06-08T03:31:55.674Z,99791.25
2019-06-08T03:34:23.113Z,99796.31
2019-06-08T03:36:56.678Z,99796.73
2019-06-08T03:39:25.942Z,99797.18
2019-06-08T03:41:56.618Z,99800.02
2019-06-08T03:44:27.158Z,99814.24
2019-06-08T03:46:57.875Z,99810.84
2019-06-08T03:49:41.465Z,99816.19
2019-06-08T03:52:01.526Z,99820.30
2019-06-08T03:54:32.070Z,99820.38
2019-06-08T03:57:02.838Z,99821.86
2019-06-08T03:59:33.648Z,99828.55
2019-06-08T04:02:05.679Z,99826.10
2019-06-08T04:04:37.959Z,99835.34
2019-06-08T04:07:08.979Z,99838.46
2019-06-08T04:09:40.361Z,99838.20
2019-06-08T04:12:12.448Z,99839.73
2019-06-08T04:14:44.562Z,99843.81
2019-06-08T04:17:15.857Z,99844.06
2019-06-08T04:20:06.354Z,99842.82
2019-06-08T04:22:19.155Z,99848.09
2019-06-08T04:24:50.611Z,99853.64
2019-06-08T04:27:21.765Z,99857.14
2019-06-08T04:29:52.651Z,99854.91
2019-06-08T04:32:23.618Z,99859.30
2019-06-08T04:34:54.460Z,99862.22
2019-06-08T04:37:25.273Z,99865.25
2019-06-08T04:39:56.237Z,99870.58
2019-06-08T04:42:26.942Z,99868.39
2019-06-08T04:44:57.917Z,99872.88
2019-06-08T04:47:28.460Z,99874.25
2019-06-08T04:49:59.044Z,99889.39
2019-06-08T04:52:29.589Z,99884.53
2019-06-08T04:55:00.180Z,99893.19
2019-06-08T04:57:30.742Z,99892.35
2019-06-08T05:00:11.136Z,99894.73
2019-06-08T05:02:33.960Z,99905.57
2019-06-08T05:05:05.513Z,99913.73
2019-06-08T05:07:36.314Z,99909.75
2019-06-08T05:10:07.777Z,99922.36
2019-06-08T05:12:41.170Z,99919.73
2019-06-08T05:15:12.212Z,99917.94
2019-06-08T05:17:43.299Z,99918.34
2019-06-08T05:20:14.338Z,99925.30
2019-06-08T05:22:45.717Z,99928.11
2019-06-08T05:25:16.461Z,99930.98
2019-06-08T05:27:47.445Z,99942.34
2019-06-08T05:30:18.793Z,99940.45
2019-06-08T05:32:49.790Z,99950.37
2019-06-08T05:35:20.884Z,99951.23
2019-06-08T05:37:51.818Z,99960.50
2019-06-08T05:40:22.749Z,99952.22
2019-06-08T05:42:53.568Z,99964.22
2019-06-08T05:45:24.320Z,99971.25
2019-06-08T05:47:55.196Z,99963.89
2019-06-08T05:50:26.307Z,99961.35
2019-06-08T05:52:57.222Z,99976.03
2019-06-08T05:55:28.199Z,99978.98
2019-06-08T05:57:58.996Z,99982.83
2019-06-08T06:00:30.003Z,99981.66
2019-06-08T06:03:00.867Z,99991.91
2019-06-08T06:05:31.828Z,99982.39
2019-06-08T06:08:02.932Z,99991.48
2019-06-08T06:10:33.944Z,99997.11
2019-06-08T06:13:04.723Z,99990.29
2019-06-08T06:15:35.692Z,99998.03
2019-06-08T06:18:06.619Z,100000.88
2019-06-08T06:20:37.690Z,99999.38
2019-06-08T06:23:09.598Z,100003.05
2019-06-08T06:25:41.363Z,99999.86
2019-06-08T06:28:12.048Z,100000.76
2019-06-08T06:30:44.189Z,99995.30
2019-06-08T06:33:14.814Z,99998.39
2019-06-08T06:35:50.334Z,100002.94
2019-06-08T06:38:22.616Z,100012.95
2019-06-08T06:40:53.357Z,100005.22
2019-06-08T06:43:24.312Z,100012.20
2019-06-08T06:45:55.217Z,100013.09
2019-06-08T06:48:26.082Z,100019.23
2019-06-08T06:50:57.965Z,100024.83
2019-06-08T06:53:28.854Z,100024.02
2019-06-08T06:55:59.857Z,100031.94
2019-06-08T06:58:30.736Z,100036.39
2019-06-08T07:01:01.628Z,100032.45
2019-06-08T07:03:32.398Z,100028.41
2019-06-08T07:06:03.278Z,100030.87
2019-06-08T07:08:34.086Z,100032.30
2019-06-08T07:11:05.254Z,100027.99
2019-06-08T07:13:36.170Z,100023.72
2019-06-08T07:16:18.009Z,100021.07
2019-06-08T07:18:39.589Z,100025.27
2019-06-08T07:21:10.567Z,100029.62
2019-06-08T07:23:41.354Z,100022.98
2019-06-08T07:26:12.241Z,100019.63
2019-06-08T07:28:43.018Z,100034.77
2019-06-08T07:31:13.992Z,100027.53
2019-06-08T07:33:44.892Z,100034.67
2019-06-08T07:36:15.873Z,100035.38
2019-06-08T07:38:47.010Z,100035.56
2019-06-08T07:41:19.092Z,100040.16
2019-06-08T07:43:50.732Z,100043.84
2019-06-08T07:46:21.558Z,100045.42
2019-06-08T07:48:52.636Z,100036.33
2019-06-08T07:51:25.447Z,100039.48
2019-06-08T07:53:56.337Z,100039.36
2019-06-08T07:56:27.166Z,100040.81
2019-06-08T07:58:59.070Z,100032.30
2019-06-08T08:01:36.313Z,100045.89
2019-06-08T08:04:02.625Z,100048.62
2019-06-08T08:06:33.601Z,100046.42
2019-06-08T08:09:05.947Z,100043.77
2019-06-08T08:11:36.477Z,100046.58
2019-06-08T08:14:07.063Z,100048.20
2019-06-08T08:16:37.697Z,100046.20
2019-06-08T08:19:08.315Z,100053.81
2019-06-08T08:21:40.930Z,100057.73
2019-06-08T08:24:11.465Z,100066.84
2019-06-08T08:26:42.539Z,100062.66
2019-06-08T08:29:13.325Z,100066.98
2019-06-08T08:31:44.225Z,100066.80
2019-06-08T08:34:15.097Z,100074.54
2019-06-08T08:36:48.150Z,100074.84
2019-06-08T08:39:18.728Z,100082.39
2019-06-08T08:41:53.640Z,100082.62
2019-06-08T08:44:22.303Z,100077.31
2019-06-08T08:46:54.597Z,100078.26
2019-06-08T08:49:27.966Z,100078.34
2019-06-08T08:52:00.027Z,100075.89
2019-06-08T08:54:30.758Z,100075.63
2019-06-08T08:57:04.531Z,100071.22
2019-06-08T08:59:34.154Z,100068.95
2019-06-08T09:02:05.164Z,100068.77
2019-06-08T09:04:38.051Z,100060.20
2019-06-08T09:07:10.641Z,100052.56
2019-06-08T09:09:41.311Z,100048.77
2019-06-08T09:12:12.083Z,100052.20
2019-06-08T09:14:43.021Z,100045.40
2019-06-08T09:17:14.742Z,100053.59
2019-06-08T09:19:47.855Z,100047.25
2019-06-08T09:22:18.837Z,100057.44
2019-06-08T09:24:49.883Z,100037.39
2019-06-08T09:27:20.836Z,100045.55
2019-06-08T09:29:53.359Z,100049.21
2019-06-08T09:32:24.241Z,100037.90
2019-06-08T09:34:57.177Z,100049.67
2019-06-08T09:37:28.759Z,100047.30
2019-06-08T09:40:00.859Z,100044.54
2019-06-08T09:42:31.856Z,100044.64
2019-06-08T09:45:05.362Z,100051.02
2019-06-08T09:47:37.945Z,100052.93
2019-06-08T09:50:09.572Z,100058.68
2019-06-08T09:52:41.375Z,100052.59
2019-06-08T09:55:12.934Z,100052.95
2019-06-08T09:57:43.769Z,100060.48
2019-06-08T10:00:18.479Z,100054.96
2019-06-08T10:02:47.890Z,100049.63
2019-06-08T10:05:18.949Z,100051.50
2019-06-08T10:07:49.780Z,100059.25
2019-06-08T10:10:20.518Z,100062.67
2019-06-08T10:12:51.414Z,100056.73
2019-06-08T10:15:22.313Z,100054.16
2019-06-08T10:17:54.718Z,100047.22
2019-06-08T10:20:28.856Z,100050.48
2019-06-08T10:23:01.559Z,100047.52
2019-06-08T10:25:31.795Z,100043.98
2019-06-08T10:28:07.789Z,100059.30
2019-06-08T10:30:35.382Z,100049.70
2019-06-08T10:33:07.777Z,100051.59
2019-06-08T10:35:39.005Z,100052.70
2019-06-08T10:38:12.230Z,100049.47
2019-06-08T10:41:11.987Z,100052.79
2019-06-08T10:43:35.142Z,100052.80
2019-06-08T10:46:14.027Z,100051.35
2019-06-08T10:48:38.130Z,100042.61
2019-06-08T10:51:12.514Z,100049.52
2019-06-08T10:53:52.697Z,100041.25
2019-06-08T10:56:13.674Z,100039.59
2019-06-08T10:58:44.393Z,100048.12
2019-06-08T11:01:14.939Z,100034.94
2019-06-08T11:03:45.555Z,100037.92
2019-06-08T11:06:18.551Z,100034.56
2019-06-08T11:08:48.678Z,100027.70
2019-06-08T11:11:20.481Z,100033.78
2019-06-08T11:13:52.488Z,100030.20
2019-06-08T11:16:23.425Z,100029.38
2019-06-08T11:18:54.235Z,100032.95
2019-06-08T11:21:25.106Z,100024.94
2019-06-08T11:24:07.580Z,100022.52
2019-06-08T11:26:29.042Z,100020.42
2019-06-08T11:29:01.565Z,100019.55
2019-06-08T11:31:32.501Z,100020.84
2019-06-08T11:34:03.951Z,100015.39
2019-06-08T11:36:36.114Z,100019.52
2019-06-08T11:39:10.838Z,100014.38
2019-06-08T11:41:40.614Z,100004.72
2019-06-08T11:44:14.352Z,100009.55
2019-06-08T11:46:44.220Z,100015.39
2019-06-08T11:49:18.170Z,100006.23
2019-06-08T11:51:47.956Z,100003.70
2019-06-08T11:54:33.224Z,100008.66
2019-06-08T11:56:54.377Z,100002.43
2019-06-08T11:59:25.683Z,99992.00
2019-06-08T12:01:58.486Z,99991.95
2019-06-08T12:04:28.520Z,99990.98
2019-06-08T12:06:59.070Z,99998.31
2019-06-08T12:09:29.720Z,99991.48
2019-06-08T12:12:00.347Z,99997.62
2019-06-08T12:14:33.605Z,99987.68
2019-06-08T12:17:03.510Z,99993.05
2019-06-08T12:19:34.054Z,99986.80
2019-06-08T12:22:06.158Z,99986.16
2019-06-08T12:24:42.134Z,99983.08
2019-06-08T12:27:22.045Z,99977.70
2019-06-08T12:29:41.903Z,99978.73
2019-06-08T12:32:14.362Z,99982.94
2019-06-08T12:34:45.360Z,99982.44
2019-06-08T12:37:21.796Z,99972.38
2019-06-08T12:39:48.796Z,99971.09
2019-06-08T12:42:24.381Z,99980.19
2019-06-08T12:44:52.191Z,99982.45
2019-06-08T12:47:26.727Z,99972.65
2019-06-08T12:49:58.292Z,99969.71
2019-06-08T12:52:29.765Z,99969.30
2019-06-08T12:55:06.881Z,99967.62
2019-06-08T12:57:33.555Z,99964.48
2019-06-08T13:00:04.946Z,99970.73
2019-06-08T13:02:38.246Z,99971.21
2019-06-08T13:05:12.470Z,99968.30
2019-06-08T13:07:41.049Z,99973.11
2019-06-08T13:10:13.214Z,99975.48
2019-06-08T13:12:44.026Z,99974.45
2019-06-08T13:15:15.281Z,99972.05
2019-06-08T13:17:47.775Z,99969.66
2019-06-08T13:20:22.157Z,99966.98
2019-06-08T13:22:52.232Z,99971.53
2019-06-08T13:25:36.417Z,99960.97
2019-06-08T13:27:58.302Z,99969.52
2019-06-08T13:30:31.988Z,99962.98
2019-06-08T13:33:01.407Z,99960.34
2019-06-08T13:35:32.120Z,99951.44
2019-06-08T13:38:03.141Z,99958.42
2019-06-08T13:40:34.088Z,99956.53
2019-06-08T13:43:04.788Z,99961.92
2019-06-08T13:45:35.370Z,99960.84
2019-06-08T13:48:08.698Z,99957.12
2019-06-08T13:50:38.394Z,99956.53
2019-06-08T13:53:10.629Z,99945.88
2019-06-08T13:55:55.027Z,99958.29
2019-06-08T13:58:13.160Z,99949.93
2019-06-08T14:00:43.847Z,99947.48
2019-06-08T14:03:15.430Z,99950.04
2019-06-08T14:05:47.821Z,99954.38
2019-06-08T14:08:20.473Z,99959.88
2019-06-08T14:10:50.856Z,99944.94
2019-06-08T14:13:29.317Z,99943.98
2019-06-08T14:15:54.136Z,99947.45
2019-06-08T14:18:29.969Z,99950.34
2019-06-08T14:20:58.725Z,99948.33
2019-06-08T14:23:31.060Z,99945.34
2019-06-08T14:26:02.969Z,99939.80
2019-06-08T14:28:33.811Z,99935.61
2019-06-08T14:31:04.680Z,99931.41
2019-06-08T14:33:35.376Z,99928.73
2019-06-08T14:36:07.951Z,99930.32
2019-06-08T14:38:42.086Z,99929.11
2019-06-08T14:41:11.597Z,99926.24
2019-06-08T14:43:42.303Z,99930.80
2019-06-08T14:46:13.185Z,99922.52
2019-06-08T14:48:45.413Z,99919.55
2019-06-08T14:51:16.531Z,99914.33
2019-06-08T14:53:48.598Z,99913.88
2019-06-08T14:56:20.990Z,99913.05
2019-06-08T14:58:52.301Z,99912.45
2019-06-08T15:01:24.493Z,99908.08
2019-06-08T15:03:58.569Z,99916.52
2019-06-08T15:06:33.988Z,99913.75
2019-06-08T15:09:02.272Z,99909.16
2019-06-08T15:11:35.294Z,99910.23
2019-06-08T15:14:08.404Z,99897.22
2019-06-08T15:16:41.628Z,99901.38
2019-06-08T15:19:10.883Z,99897.87
2019-06-08T15:21:41.513Z,99895.70
2019-06-08T15:24:12.071Z,99895.42
2019-06-08T15:26:45.195Z,99901.27
2019-06-08T15:29:14.952Z,99896.94
2019-06-08T15:31:47.562Z,99898.20
2019-06-08T15:34:18.457Z,99896.41
2019-06-08T15:36:49.320Z,99892.81
2019-06-08T15:39:21.546Z,99882.69
2019-06-08T15:41:52.679Z,99899.67
2019-06-08T15:44:24.632Z,99881.80
2019-06-08T15:46:55.678Z,99884.77
2019-06-08T15:49:29.021Z,99875.99
2019-06-08T15:51:58.972Z,99875.90
2019-06-08T15:54:34.921Z,99878.34
2019-06-08T15:57:02.265Z,99871.30
2019-06-08T15:59:38.996Z,99868.62
2019-06-08T16:02:06.119Z,99876.84
2019-06-08T16:04:37.016Z,99877.83
2019-06-08T16:07:08.268Z,99871.97
2019-06-08T16:09:39.656Z,99874.38
2019-06-08T16:12:10.651Z,99867.80
2019-06-08T16:14:41.754Z,99872.34
2019-06-08T16:17:12.726Z,99866.52
2019-06-08T16:19:43.529Z,99864.53
2019-06-08T16:22:14.303Z,99862.03
2019-06-08T16:24:45.287Z,99863.58
2019-06-08T16:27:16.125Z,99858.73
2019-06-08T16:29:47.940Z,99857.73
2019-06-08T16:32:18.717Z,99854.69
2019-06-08T16:34:49.508Z,99865.03
2019-06-08T16:37:20.586Z,99857.69
2019-06-08T16:39:51.472Z,99855.42
2019-06-08T16:42:22.090Z,99855.66
2019-06-08T16:44:52.732Z,99854.29
2019-06-08T16:47:23.673Z,99855.22
2019-06-08T16:49:54.480Z,99849.72
2019-06-08T16:52:25.429Z,99852.90
2019-06-08T16:54:55.991Z,99852.23
2019-06-08T16:57:26.609Z,99857.91
2019-06-08T16:59:57.168Z,99852.03
2019-06-08T17:02:28.557Z,99848.70
2019-06-08T17:04:59.124Z,99848.53
2019-06-08T17:07:29.759Z,99852.18
2019-06-08T17:10:00.315Z,99846.50
2019-06-08T17:12:30.937Z,99849.28
2019-06-08T17:15:01.661Z,99849.92
2019-06-08T17:17:34.254Z,99850.44
2019-06-08T17:20:06.153Z,99852.12
2019-06-08T17:22:37.065Z,99857.59
2019-06-08T17:25:08.528Z,99852.41
2019-06-08T17:27:40.804Z,99846.55
2019-06-08T17:30:12.229Z,99850.42
2019-06-08T17:32:42.932Z,99844.14
2019-06-08T17:35:14.004Z,99845.64
2019-06-08T17:37:44.967Z,99849.05
2019-06-08T17:40:16.295Z,99845.42
2019-06-08T17:42:47.133Z,99849.37
2019-06-08T17:45:18.703Z,99846.91
2019-06-08T17:47:49.619Z,99845.53
2019-06-08T17:50:20.620Z,99855.19
2019-06-08T17:52:51.623Z,99850.03
2019-06-08T17:55:22.528Z,99850.33
2019-06-08T17:57:53.894Z,99851.38
2019-06-08T18:00:25.232Z,99858.98
2019-06-08T18:02:57.734Z,99856.52
2019-06-08T18:05:28.747Z,99861.14
2019-06-08T18:07:59.655Z,99861.27
2019-06-08T18:10:31.061Z,99865.48
2019-06-08T18:13:01.740Z,99866.56
2019-06-08T18:15:34.022Z,99870.86
2019-06-08T18:18:04.957Z,99863.09
2019-06-08T18:20:38.592Z,99863.60
2019-06-08T18:23:08.470Z,99868.55
2019-06-08T18:25:40.624Z,99862.09
2019-06-08T18:28:13.571Z,99859.23
2019-06-08T18:30:45.143Z,99863.30
2019-06-08T18:33:18.563Z,99864.27
2019-06-08T18:35:50.542Z,99864.67
2019-06-08T18:38:21.264Z,99861.13
2019-06-08T18:40:52.063Z,99862.79
2019-06-08T18:43:24.367Z,99866.91
2019-06-08T18:45:57.558Z,99865.02
2019-06-08T18:48:28.758Z,99866.42
2019-06-08T18:50:59.652Z,99870.30
2019-06-08T18:53:30.224Z,99865.66
2019-06-08T18:56:00.841Z,99869.00
2019-06-08T18:58:32.384Z,99863.25
2019-06-08T19:01:02.948Z,99873.14
2019-06-08T19:03:33.545Z,99872.56
2019-06-08T19:06:04.213Z,99866.80
2019-06-08T19:08:39.237Z,99873.41
2019-06-08T19:11:08.144Z,99873.39
2019-06-08T19:13:39.655Z,99879.97
2019-06-08T19:16:10.474Z,99879.42
2019-06-08T19:18:46.277Z,99886.54
2019-06-08T19:21:14.912Z,99890.96
2019-06-08T19:23:49.199Z,99896.72
2019-06-08T19:26:18.204Z,99890.96
2019-06-08T19:28:53.776Z,99892.28
2019-06-08T19:31:21.736Z,99897.11
2019-06-08T19:33:53.436Z,99898.73
2019-06-08T19:36:24.536Z,99903.32
2019-06-08T19:38:57.594Z,99910.75
2019-06-08T19:41:28.443Z,99917.56
2019-06-08T19:44:00.309Z,99910.48
2019-06-08T19:46:30.906Z,99913.22
2019-06-08T19:49:01.820Z,99912.95
2019-06-08T19:51:32.714Z,99921.11
2019-06-08T19:54:03.705Z,99921.59
2019-06-08T19:56:34.504Z,99921.13
2019-06-08T19:59:08.362Z,99919.47
2019-06-08T20:01:39.455Z,99926.02
2019-06-08T20:04:10.534Z,99929.28
2019-06-08T20:06:41.318Z,99941.27
2019-06-08T20:09:12.188Z,99941.83
2019-06-08T20:11:46.911Z,99947.24
2019-06-08T20:14:15.060Z,99959.69
2019-06-08T20:16:48.096Z,99960.19
2019-06-08T20:19:17.924Z,99965.02
2019-06-08T20:21:51.261Z,99962.70
2019-06-08T20:24:21.184Z,99970.13
2019-06-08T20:26:54.360Z,99971.50
2019-06-08T20:29:24.681Z,99965.73
2019-06-08T20:31:57.770Z,99978.06
2019-06-08T20:34:28.445Z,99974.13
2019-06-08T20:37:01.395Z,99983.14
2019-06-08T20:39:32.770Z,99984.52
2019-06-08T20:42:03.763Z,99985.41
2019-06-08T20:44:37.477Z,99985.24
2019-06-08T20:47:08.471Z,99986.73
2019-06-08T20:49:39.595Z,99979.29
2019-06-08T20:52:10.856Z,99981.45
2019-06-08T20:54:42.768Z,99981.19
2019-06-08T20:57:14.017Z,99984.97
2019-06-08T20:59:45.675Z,99977.91
2019-06-08T21:02:17.829Z,99989.16
2019-06-08T21:04:51.325Z,99978.03
2019-06-08T21:07:21.540Z,99979.70
2019-06-08T21:09:53.709Z,99986.94
2019-06-08T21:12:25.485Z,99982.75
2019-06-08T21:14:56.434Z,99984.53
2019-06-08T21:17:32.596Z,99988.52
2019-06-08T21:20:03.364Z,99982.86
2019-06-08T21:22:35.023Z,99980.86
2019-06-08T21:25:09.966Z,99977.28
2019-06-08T21:27:40.783Z,99979.85
2019-06-08T21:30:20.635Z,99970.37
2019-06-08T21:32:44.431Z,99975.13
2019-06-08T21:35:15.237Z,99976.49
2019-06-08T21:37:50.677Z,99983.59
2019-06-08T21:40:18.646Z,99982.44
2019-06-08T21:42:52.149Z,99988.94
2019-06-08T21:45:21.642Z,99995.56
2019-06-08T21:47:53.313Z,100003.48
2019-06-08T21:50:24.784Z,99999.25
2019-06-08T21:52:56.765Z,99998.30
2019-06-08T21:55:28.086Z,99999.55
2019-06-08T21:58:02.040Z,99992.87
2019-06-08T22:00:42.908Z,99992.56
2019-06-08T22:03:08.089Z,99991.70
2019-06-08T22:05:39.380Z,99998.55
2019-06-08T22:08:10.442Z,99995.09
2019-06-08T22:10:41.247Z,99999.58
2019-06-08T22:13:12.590Z,99992.81
2019-06-08T22:15:43.551Z,99995.03
2019-06-08T22:18:14.513Z,99996.34
2019-06-08T22:20:47.643Z,100000.89
2019-06-08T22:23:18.145Z,99992.05
2019-06-08T22:25:49.226Z,99989.00
2019-06-08T22:28:20.073Z,99988.14
2019-06-08T22:30:52.113Z,99984.28
2019-06-08T22:33:24.308Z,99984.25
2019-06-08T22:35:58.517Z,99976.89
2019-06-08T22:38:27.720Z,99977.47
2019-06-08T22:41:00.277Z,99985.05
2019-06-08T22:43:31.197Z,99974.75
2019-06-08T22:46:03.447Z,99977.63
2019-06-08T22:48:34.384Z,99978.80
2019-06-08T22:51:07.821Z,99989.11
2019-06-08T22:53:38.362Z,99991.09
2019-06-08T22:56:10.426Z,100000.62
2019-06-08T22:58:41.316Z,99996.72
2019-06-08T23:01:12.237Z,99987.97
2019-06-08T23:03:43.087Z,99992.48
2019-06-08T23:06:13.859Z,99988.00
2019-06-08T23:08:44.862Z,99982.55
2019-06-08T23:11:17.838Z,99981.50
2019-06-08T23:13:48.324Z,99983.64
2019-06-08T23:16:19.011Z,99991.88
2019-06-08T23:18:49.557Z,99990.30
2019-06-08T23:21:20.131Z,99989.73
2019-06-08T23:23:50.712Z,99987.21
2019-06-08T23:26:21.249Z,99992.11
2019-06-08T23:28:52.043Z,99985.66
2019-06-08T23:31:25.633Z,99986.26
2019-06-08T23:33:57.181Z,99984.94
2019-06-08T23:36:46.712Z,99992.42
2019-06-08T23:39:01.114Z,99983.20
2019-06-08T23:41:33.423Z,99993.72
2019-06-08T23:44:04.213Z,99994.91
2019-06-08T23:46:38.028Z,99993.40
2019-06-08T23:49:09.166Z,99991.42
2019-06-08T23:51:40.084Z,99988.56
2019-06-08T23:54:12.513Z,99988.38
2019-06-08T23:56:43.547Z,99989.25
2019-06-08T23:59:14.582Z,99983.60
